Time;durP1;ratioP1;P1;durP2;ratioP2;P2;SDS_P1;SDS_P2;PMS_P1;PMS_P2;Temp;Humidity;BMP_temperature;BMP_pressure;BME280_temperature;BME280_humidity;BME280_pressure;Samples;Min_cycle;Max_cycle;Signal;HPM_P1;HPM_P2
2021/12/09 00:01:47;;;;;;;13.85;6.40;;;;;;;2.05;100.00;99714.59;5009535;28;20045;-84
2021/12/09 00:04:14;;;;;;;7.32;4.80;;;;;;;1.89;100.00;99719.56;5025167;28;20434;-83
2021/12/09 00:06:43;;;;;;;12.10;5.88;;;;;;;1.91;100.00;99717.63;5027636;28;20133;-84
2021/12/09 00:09:14;;;;;;;10.30;5.65;;;;;;;1.80;100.00;99715.91;5024297;28;20531;-84
2021/12/09 00:11:43;;;;;;;11.27;5.93;;;;;;;1.75;100.00;99710.19;5009833;28;20055;-85
2021/12/09 00:14:14;;;;;;;;;;;;;;;1.66;100.00;99711.81;5026594;28;20088;-85
2021/12/09 00:16:39;;;;;;;16.30;6.35;;;;;;;1.63;100.00;99727.13;5025424;28;19912;-85
2021/12/09 00:19:06;;;;;;;12.25;5.25;;;;;;;1.62;100.00;99733.41;5027157;28;20675;-82
2021/12/09 00:21:35;;;;;;;12.05;5.90;;;;;;;1.57;100.00;99737.25;5024384;28;20045;-82
2021/12/09 00:24:01;;;;;;;12.85;5.90;;;;;;;1.57;100.00;99726.69;5005435;28;20037;-82
2021/12/09 00:26:26;;;;;;;10.98;5.50;;;;;;;1.64;100.00;99731.44;5041272;28;20569;-82
2021/12/09 00:28:52;;;;;;;12.57;6.15;;;;;;;1.65;100.00;99728.66;5024046;28;20046;-84
2021/12/09 00:31:18;;;;;;;12.48;6.25;;;;;;;1.70;100.00;99726.47;5024610;28;20098;-83
2021/12/09 00:33:47;;;;;;;12.07;5.53;;;;;;;1.63;100.00;99724.47;5008366;28;20045;-83
2021/12/09 00:36:26;;;;;;;11.43;5.68;;;;;;;1.58;100.00;99730.16;5036583;28;20506;-83
2021/12/09 00:38:55;;;;;;;12.88;6.10;;;;;;;1.61;100.00;99721.13;5007095;28;20053;-84
2021/12/09 00:41:27;;;;;;;;;;;;;;;1.53;100.00;99727.09;5002127;28;20487;-84
2021/12/09 00:43:53;;;;;;;10.55;6.25;;;;;;;1.46;100.00;99724.13;5017890;28;19924;-83
2021/12/09 00:46:21;;;;;;;14.25;6.25;;;;;;;1.50;100.00;99730.84;5005470;28;20048;-83
2021/12/09 00:48:51;;;;;;;12.40;6.43;;;;;;;1.52;100.00;99728.03;5022970;28;20060;-83
2021/12/09 00:51:17;;;;;;;14.82;6.25;;;;;;;1.48;100.00;99731.94;4991070;28;20121;-84
2021/12/09 00:53:43;;;;;;;13.85;6.90;;;;;;;1.54;100.00;99726.94;5019803;28;20164;-86
2021/12/09 00:56:12;;;;;;;12.10;6.07;;;;;;;1.52;100.00;99728.88;5006983;28;20051;-83
2021/12/09 00:58:42;;;;;;;11.60;7.30;;;;;;;1.51;100.00;99737.78;5015373;28;20041;-84
2021/12/09 01:01:07;;;;;;;;;;;;;;;1.48;100.00;99731.94;5003745;28;20132;-85
2021/12/09 01:03:35;;;;;;;12.50;7.22;;;;;;;1.43;100.00;99737.59;5033502;28;19959;-85
2021/12/09 01:06:02;;;;;;;13.45;5.97;;;;;;;1.30;100.00;99739.63;5004044;28;20049;-86
2021/12/09 01:08:28;;;;;;;10.85;6.10;;;;;;;1.41;100.00;99744.84;5001428;28;20049;-84
2021/12/09 01:10:54;;;;;;;12.05;6.72;;;;;;;1.39;100.00;99735.38;5004748;28;20367;-83
2021/12/09 01:13:19;;;;;;;13.20;6.57;;;;;;;1.32;100.00;99735.91;5003004;28;20053;-85
2021/12/09 01:15:46;;;;;;;11.15;6.50;;;;;;;1.33;100.00;99731.44;5007416;28;20033;-83
2021/12/09 01:18:12;;;;;;;15.20;6.65;;;;;;;1.35;100.00;99748.84;5004187;28;20144;-85
2021/12/09 01:20:39;;;;;;;11.52;6.07;;;;;;;1.31;100.00;99742.13;5007242;28;20398;-86
2021/12/09 01:23:12;;;;;;;12.38;6.65;;;;;;;1.30;100.00;99742.28;5007893;28;20041;-84
2021/12/09 01:25:38;;;;;;;12.80;7.43;;;;;;;1.31;100.00;99728.09;5024424;28;20034;-84
2021/12/09 01:28:08;;;;;;;19.13;8.52;;;;;;;1.26;100.00;99730.28;5024635;28;20426;-85
2021/12/09 01:30:34;;;;;;;14.45;7.60;;;;;;;1.27;100.00;99740.72;5019654;28;20152;-82
2021/12/09 01:33:00;;;;;;;13.05;6.75;;;;;;;1.24;100.00;99735.72;5002928;28;20124;-84
2021/12/09 01:35:34;;;;;;;11.38;6.57;;;;;;;1.13;100.00;99744.53;4999783;28;20042;-85
2021/12/09 01:38:08;;;;;;;16.27;7.32;;;;;;;1.15;100.00;99754.13;4988394;28;20041;-83
2021/12/09 01:40:34;;;;;;;15.45;7.85;;;;;;;1.08;100.00;99751.16;5022157;28;20057;-83
2021/12/09 01:43:04;;;;;;;12.48;8.38;;;;;;;1.01;100.00;99750.84;5022355;28;20029;-84
2021/12/09 01:45:30;;;;;;;17.98;9.05;;;;;;;1.10;100.00;99750.06;5005700;28;20718;-82
2021/12/09 01:47:55;;;;;;;15.45;8.27;;;;;;;1.15;100.00;99751.47;5014224;28;20045;-84
2021/12/09 01:50:23;;;;;;;15.15;8.40;;;;;;;1.16;100.00;99748.72;5006520;28;20042;-83
2021/12/09 01:52:48;;;;;;;11.40;8.35;;;;;;;1.24;100.00;99748.91;5007524;28;20385;-84
2021/12/09 01:55:22;;;;;;;14.73;8.00;;;;;;;1.15;100.00;99746.19;5026922;28;20045;-83
2021/12/09 01:57:50;;;;;;;13.10;7.70;;;;;;;1.13;100.00;99754.28;5019802;28;20044;-85
2021/12/09 02:00:21;;;;;;;19.13;7.70;;;;;;;1.11;100.00;99756.19;5025184;28;20124;-85
2021/12/09 02:02:49;;;;;;;17.17;9.00;;;;;;;1.14;100.00;99750.66;4992963;28;20363;-82
2021/12/09 02:05:14;;;;;;;14.73;8.55;;;;;;;1.09;100.00;99748.41;5015115;28;20038;-83
2021/12/09 02:07:50;;;;;;;16.73;8.32;;;;;;;1.15;100.00;99751.47;5026684;28;20052;-83
2021/12/09 02:10:18;;;;;;;16.67;7.40;;;;;;;1.14;100.00;99755.94;5022095;28;20494;-85
2021/12/09 02:12:48;;;;;;;13.35;7.05;;;;;;;1.04;100.00;99750.59;5004496;28;20085;-83
2021/12/09 02:15:15;;;;;;;19.20;7.82;;;;;;;0.99;100.00;99747.50;5010436;28;20097;-84
2021/12/09 02:17:42;;;;;;;13.07;7.47;;;;;;;1.00;100.00;99749.16;5025372;28;20041;-81
2021/12/09 02:20:11;;;;;;;15.75;7.32;;;;;;;1.08;100.00;99754.66;5020033;28;20494;-83
2021/12/09 02:22:37;;;;;;;13.05;8.30;;;;;;;1.10;100.00;99755.38;5035662;28;20042;-84
2021/12/09 02:25:03;;;;;;;17.48;7.63;;;;;;;1.01;100.00;99750.84;5023419;28;20045;-82
2021/12/09 02:27:29;;;;;;;16.67;7.70;;;;;;;0.99;100.00;99744.84;5022727;28;20041;-81
2021/12/09 02:29:55;;;;;;;17.90;7.13;;;;;;;0.90;100.00;99749.09;5041504;28;20052;-84
2021/12/09 02:32:22;;;;;;;18.08;7.90;;;;;;;1.01;100.00;99750.84;5026196;28;20060;-84
2021/12/09 02:34:48;;;;;;;14.02;7.47;;;;;;;0.94;100.00;99746.19;5043665;28;20086;-83
2021/12/09 02:37:20;;;;;;;19.10;8.07;;;;;;;0.99;100.00;99752.78;5025669;28;20132;-84
2021/12/09 02:39:47;;;;;;;17.05;9.02;;;;;;;1.01;100.00;99755.31;5048314;28;20390;-85
2021/12/09 02:42:13;;;;;;;12.57;6.95;;;;;;;0.93;100.00;99758.59;5029113;28;20052;-83
2021/12/09 02:44:40;;;;;;;16.52;9.07;;;;;;;0.97;100.00;99752.06;5010951;28;20049;-83
2021/12/09 02:47:06;;;;;;;18.75;8.48;;;;;;;0.97;100.00;99743.31;5005833;28;20061;-83
2021/12/09 02:49:39;;;;;;;17.00;8.10;;;;;;;0.99;100.00;99747.50;5016013;28;20061;-83
2021/12/09 02:52:04;;;;;;;16.08;8.57;;;;;;;1.04;100.00;99757.69;5002643;28;20133;-82
2021/12/09 02:54:31;;;;;;;15.50;8.80;;;;;;;1.04;100.00;99757.69;5005628;28;20117;-83
2021/12/09 02:57:01;;;;;;;16.50;7.78;;;;;;;1.05;100.00;99754.91;5022836;28;20072;-82
2021/12/09 02:59:32;;;;;;;16.92;7.97;;;;;;;1.05;100.00;99757.56;5013926;28;20078;-84
2021/12/09 03:02:00;;;;;;;15.20;7.60;;;;;;;1.04;100.00;99761.16;5000698;28;20050;-81
2021/12/09 03:04:52;;;;;;;15.18;8.05;;;;;;;1.05;100.00;99759.34;5021448;28;20501;-82
2021/12/09 03:07:30;;;;;;;16.50;8.05;;;;;;;0.94;100.00;99754.13;5025740;28;20045;-82
2021/12/09 03:10:21;;;;;;;15.35;8.77;;;;;;;0.87;100.00;99765.22;5018999;28;20042;-83
2021/12/09 03:12:52;;;;;;;19.40;8.98;;;;;;;0.95;100.00;99761.94;5038154;28;20073;-82
2021/12/09 03:15:19;;;;;;;13.63;8.10;;;;;;;1.03;100.00;99758.63;5027365;28;20082;-83
2021/12/09 03:17:47;;;;;;;16.17;8.00;;;;;;;0.93;100.00;99758.59;5038499;28;20037;-83
2021/12/09 03:20:14;;;;;;;17.95;9.38;;;;;;;0.93;100.00;99763.88;5042690;28;20056;-83
2021/12/09 03:22:40;;;;;;;15.35;8.93;;;;;;;0.86;100.00;99762.69;5027321;28;20038;-82
2021/12/09 03:25:09;;;;;;;18.70;9.43;;;;;;;0.80;100.00;99761.38;4992458;28;20040;-82
2021/12/09 03:27:35;;;;;;;;;;;;;;;0.80;100.00;99768.47;5005568;28;20053;-82
2021/12/09 03:30:02;;;;;;;19.67;10.43;;;;;;;0.67;100.00;99766.84;5025661;28;19913;-82
2021/12/09 03:32:28;;;;;;;17.60;8.80;;;;;;;0.58;100.00;99770.25;5035183;28;20501;-83
2021/12/09 03:34:53;;;;;;;16.55;10.13;;;;;;;0.49;100.00;99771.00;4992806;28;20069;-84
2021/12/09 03:37:23;;;;;;;18.70;10.63;;;;;;;0.50;100.00;99769.19;5025883;28;20120;-81
2021/12/09 03:39:52;;;;;;;19.58;10.23;;;;;;;0.44;100.00;99767.91;5021052;28;20068;-83
2021/12/09 03:42:29;;;;;;;19.23;10.52;;;;;;;0.48;100.00;99765.84;5025244;28;20037;-82
2021/12/09 03:44:56;;;;;;;19.42;9.68;;;;;;;0.56;100.00;99766.06;5024195;28;20042;-82
2021/12/09 03:47:26;;;;;;;23.58;10.40;;;;;;;0.48;100.00;99764.03;5024143;28;20033;-82
2021/12/09 03:49:55;;;;;;;21.98;11.48;;;;;;;0.54;100.00;99754.78;5007161;28;20038;-82
2021/12/09 03:52:22;;;;;;;17.75;9.05;;;;;;;0.46;100.00;99758.03;5022200;28;20445;-83
2021/12/09 03:54:48;;;;;;;17.83;9.70;;;;;;;0.43;100.00;99760.91;5007469;28;20049;-83
2021/12/09 03:57:15;;;;;;;22.63;9.93;;;;;;;0.48;100.00;99757.91;5007959;28;20148;-82
2021/12/09 03:59:44;;;;;;;22.33;9.98;;;;;;;0.47;100.00;99762.38;5006287;28;20450;-82
2021/12/09 04:02:11;;;;;;;18.42;9.73;;;;;;;0.46;100.00;99760.66;5005478;28;20943;-84
2021/12/09 04:04:37;;;;;;;21.73;11.45;;;;;;;0.52;100.00;99765.47;5024838;28;20479;-82
2021/12/09 04:07:03;;;;;;;21.02;9.63;;;;;;;0.55;100.00;99761.75;5006156;28;20065;-82
2021/12/09 04:09:30;;;;;;;17.35;9.85;;;;;;;0.51;100.00;99766.41;5024792;28;20052;-80
2021/12/09 04:11:56;;;;;;;20.05;10.82;;;;;;;0.48;100.00;99774.59;5024904;28;20037;-81
2021/12/09 04:14:22;;;;;;;18.27;9.55;;;;;;;0.46;100.00;99771.22;5000466;28;20034;-82
2021/12/09 04:16:52;;;;;;;17.27;9.68;;;;;;;0.35;100.00;99772.13;5020923;28;20108;-82
2021/12/09 04:19:31;;;;;;;18.95;9.68;;;;;;;0.37;100.00;99771.97;5022199;28;20033;-84
2021/12/09 04:21:59;;;;;;;22.55;11.55;;;;;;;0.32;100.00;99776.81;5022540;28;20390;-83
2021/12/09 04:24:24;;;;;;;16.33;10.05;;;;;;;0.33;100.00;99774.03;5025540;28;20045;-81
2021/12/09 04:26:52;;;;;;;19.60;10.98;;;;;;;0.28;100.00;99772.72;5006610;28;20183;-83
2021/12/09 04:29:20;;;;;;;22.25;11.23;;;;;;;0.34;100.00;99773.06;5000101;28;20041;-84
2021/12/09 04:31:48;;;;;;;19.20;10.48;;;;;;;0.28;100.00;99772.72;5038103;28;20094;-82
2021/12/09 04:34:15;;;;;;;23.13;11.93;;;;;;;0.37;100.00;99777.25;5010768;28;20092;-83
2021/12/09 04:36:40;;;;;;;21.23;10.20;;;;;;;0.42;100.00;99770.66;5017097;28;20041;-82
2021/12/09 04:39:12;;;;;;;24.48;12.15;;;;;;;0.47;100.00;99778.19;4999563;28;20040;-82
2021/12/09 04:41:37;;;;;;;23.02;11.85;;;;;;;0.54;100.00;99773.25;5022326;28;20477;-83
2021/12/09 04:44:06;;;;;;;21.88;11.15;;;;;;;0.43;100.00;99777.63;5005111;28;20044;-81
2021/12/09 04:46:31;;;;;;;21.77;10.85;;;;;;;0.40;100.00;99783.16;5016792;28;20141;-85
2021/12/09 04:48:57;;;;;;;23.52;12.55;;;;;;;0.38;100.00;99785.06;5038389;28;20132;-83
2021/12/09 04:51:22;;;;;;;22.25;11.55;;;;;;;0.38;100.00;99786.88;4999433;28;20062;-82
2021/12/09 04:53:51;;;;;;;20.48;12.10;;;;;;;0.41;100.00;99797.19;5024298;28;20494;-83
2021/12/09 04:56:16;;;;;;;19.15;11.88;;;;;;;0.44;100.00;99789.00;5000828;28;20061;-84
2021/12/09 04:58:46;;;;;;;26.58;11.52;;;;;;;0.42;100.00;99793.56;5013818;28;20133;-84
2021/12/09 05:01:12;;;;;;;23.75;11.85;;;;;;;0.40;100.00;99792.84;5003911;28;20049;-82
2021/12/09 05:03:38;;;;;;;23.05;12.10;;;;;;;0.49;100.00;99800.03;5017095;28;20042;-82
2021/12/09 05:06:04;;;;;;;24.08;12.15;;;;;;;0.47;100.00;99788.75;5002125;28;20053;-84
2021/12/09 05:08:32;;;;;;;22.50;11.55;;;;;;;0.43;100.00;99798.75;5011236;28;20095;-82
2021/12/09 05:11:10;;;;;;;24.45;11.50;;;;;;;0.42;100.00;99790.94;4999687;28;20038;-82
2021/12/09 05:13:39;;;;;;;20.95;11.25;;;;;;;0.43;100.00;99796.09;5005187;28;20045;-83
2021/12/09 05:16:08;;;;;;;27.95;11.45;;;;;;;0.45;100.00;99795.97;5038806;28;20129;-82
2021/12/09 05:18:38;;;;;;;20.77;10.95;;;;;;;0.52;100.00;99798.94;5007122;28;20033;-81
2021/12/09 05:21:07;;;;;;;20.73;12.05;;;;;;;0.48;100.00;99801.00;5037382;28;20095;-84
2021/12/09 05:23:33;;;;;;;22.08;13.57;;;;;;;0.58;100.00;99801.09;5025134;28;20034;-82
2021/12/09 05:26:01;;;;;;;23.10;11.70;;;;;;;0.60;100.00;99812.34;5041288;28;20041;-82
2021/12/09 05:28:34;;;;;;;21.58;11.10;;;;;;;0.62;100.00;99807.81;5043880;28;20040;-83
2021/12/09 05:33:44;;;;;;;25.85;13.30;;;;;;;0.66;100.00;99812.72;5039496;28;20095;-82
2021/12/09 05:36:09;;;;;;;22.13;11.65;;;;;;;0.66;100.00;99815.34;5028026;28;20032;-81
2021/12/09 05:38:37;;;;;;;17.70;10.55;;;;;;;0.70;100.00;99807.19;5044224;28;20450;-84
2021/12/09 05:41:02;;;;;;;21.70;10.05;;;;;;;0.67;100.00;99814.38;5037848;28;20045;-81
2021/12/09 05:43:28;;;;;;;16.90;10.05;;;;;;;0.65;100.00;99808.38;5038232;28;20055;-83
2021/12/09 05:45:54;;;;;;;26.58;12.25;;;;;;;0.69;100.00;99808.97;5015282;28;20767;-83
2021/12/09 05:48:19;;;;;;;21.63;10.32;;;;;;;0.67;100.00;99808.28;5021845;28;20076;-80
2021/12/09 05:50:46;;;;;;;19.67;11.07;;;;;;;0.69;100.00;99822.16;5025553;28;20473;-85
2021/12/09 05:53:13;;;;;;;25.67;11.93;;;;;;;0.71;100.00;99816.78;5006749;28;20036;-83
2021/12/09 05:55:44;;;;;;;20.90;11.20;;;;;;;0.71;100.00;99824.69;5001619;28;20493;-83
2021/12/09 05:58:19;;;;;;;20.50;11.23;;;;;;;0.62;100.00;99821.00;5023597;28;20549;-81
2021/12/09 06:00:46;;;;;;;20.90;11.80;;;;;;;0.62;100.00;99821.84;5022714;28;20095;-83
2021/12/09 06:03:12;;;;;;;20.38;10.65;;;;;;;0.66;100.00;99825.91;5023981;28;20065;-79
2021/12/09 06:05:39;;;;;;;18.58;11.70;;;;;;;0.63;100.00;99820.03;5026511;28;20042;-86
2021/12/09 06:08:06;;;;;;;25.38;12.45;;;;;;;0.63;100.00;99814.75;5023564;28;20129;-83
2021/12/09 06:10:35;;;;;;;24.00;11.90;;;;;;;0.62;100.00;99811.28;5025997;28;20038;-82
2021/12/09 06:13:02;;;;;;;17.83;11.07;;;;;;;0.70;100.00;99810.66;5036624;28;20099;-83
2021/12/09 06:15:29;;;;;;;20.92;13.00;;;;;;;0.68;100.00;99816.06;5028035;28;20053;-82
2021/12/09 06:17:56;;;;;;;20.65;12.35;;;;;;;0.70;100.00;99815.09;5023895;28;20120;-81
2021/12/09 06:20:24;;;;;;;20.30;12.02;;;;;;;0.73;100.00;99822.78;5011191;28;20111;-83
2021/12/09 06:22:50;;;;;;;18.77;10.98;;;;;;;0.75;100.00;99813.78;5022764;28;20037;-85
2021/12/09 06:25:18;;;;;;;19.55;12.30;;;;;;;0.79;100.00;99824.91;5025344;28;20398;-84
2021/12/09 06:27:48;;;;;;;22.98;12.52;;;;;;;0.80;100.00;99834.50;5025544;28;20037;-84
2021/12/09 06:30:19;;;;;;;20.90;12.07;;;;;;;0.79;100.00;99836.31;5028895;28;20599;-83
2021/12/09 06:32:45;;;;;;;17.30;10.50;;;;;;;0.81;100.00;99839.69;5021699;28;20045;-82
2021/12/09 06:35:11;;;;;;;19.77;12.15;;;;;;;0.79;100.00;99838.94;5025049;28;20037;-82
2021/12/09 06:37:40;;;;;;;20.35;10.95;;;;;;;0.80;100.00;99832.69;5023660;28;20056;-84
2021/12/09 06:40:16;;;;;;;18.38;11.05;;;;;;;0.84;100.00;99831.50;5023780;28;20566;-84
2021/12/09 06:42:43;;;;;;;17.88;9.98;;;;;;;0.84;100.00;99835.94;5007201;28;20142;-81
2021/12/09 06:45:11;;;;;;;22.08;10.38;;;;;;;0.84;100.00;99831.50;5022636;28;20493;-81
2021/12/09 06:47:37;;;;;;;18.45;10.88;;;;;;;0.87;100.00;99830.41;5024301;28;20107;-84
2021/12/09 06:50:06;;;;;;;18.75;11.18;;;;;;;0.88;100.00;99840.84;5011115;28;20512;-82
2021/12/09 06:52:32;;;;;;;24.48;12.18;;;;;;;0.87;100.00;99841.81;5026140;28;20037;-85
2021/12/09 06:54:57;;;;;;;20.55;10.43;;;;;;;0.86;100.00;99836.63;5037728;28;20041;-83
2021/12/09 06:57:23;;;;;;;17.25;9.30;;;;;;;0.84;100.00;99841.22;5026321;28;20056;-82
2021/12/09 06:59:49;;;;;;;18.88;10.27;;;;;;;0.85;100.00;99834.97;5037184;28;20128;-86
2021/12/09 07:02:15;;;;;;;21.60;10.70;;;;;;;0.84;100.00;99846.50;5039595;28;20044;-83
2021/12/09 07:04:42;;;;;;;22.17;11.13;;;;;;;0.80;100.00;99835.34;5024650;28;20045;-83
2021/12/09 07:07:08;;;;;;;22.02;11.23;;;;;;;0.85;100.00;99837.63;5023588;28;20033;-84
2021/12/09 07:09:33;;;;;;;19.48;9.30;;;;;;;0.86;100.00;99836.63;5027548;28;20042;-83
2021/12/09 07:11:59;;;;;;;21.13;12.77;;;;;;;0.91;100.00;99839.75;5026516;28;20038;-82
2021/12/09 07:14:24;;;;;;;24.52;10.80;;;;;;;0.86;100.00;99828.72;5026657;28;20396;-83
2021/12/09 07:16:53;;;;;;;18.95;10.23;;;;;;;0.85;100.00;99830.53;5038966;28;20048;-82
2021/12/09 07:19:20;;;;;;;17.92;10.27;;;;;;;0.86;100.00;99828.72;5004932;28;20033;-83
2021/12/09 07:21:48;;;;;;;23.10;11.65;;;;;;;0.89;100.00;99831.09;5020801;28;20038;-83
2021/12/09 07:24:20;;;;;;;15.15;9.52;;;;;;;0.87;100.00;99846.25;5038993;28;20509;-83
2021/12/09 07:26:45;;;;;;;19.35;11.30;;;;;;;0.88;100.00;99846.13;5038636;28;20045;-83
2021/12/09 07:29:11;;;;;;;21.98;10.15;;;;;;;0.85;100.00;99856.09;5020932;28;20045;-82
2021/12/09 07:31:38;;;;;;;18.40;10.95;;;;;;;0.88;100.00;99850.56;5027351;28;20050;-85
2021/12/09 07:34:04;;;;;;;22.75;10.90;;;;;;;0.90;100.00;99848.66;5026305;28;20034;-85
2021/12/09 07:36:30;;;;;;;24.52;11.45;;;;;;;0.88;100.00;99853.22;5025353;28;20103;-84
2021/12/09 07:38:56;;;;;;;19.45;11.63;;;;;;;0.89;100.00;99852.25;5024176;28;20040;-84
2021/12/09 07:41:27;;;;;;;16.73;10.23;;;;;;;0.90;100.00;99856.56;5025213;28;20502;-84
2021/12/09 07:43:54;;;;;;;19.50;10.20;;;;;;;0.90;100.00;99865.34;5023182;28;20038;-86
2021/12/09 07:46:20;;;;;;;20.42;7.55;;;;;;;0.90;100.00;99867.97;5022585;28;20038;-82
2021/12/09 07:48:45;;;;;;;20.40;9.50;;;;;;;0.93;100.00;99866.06;5026797;28;20049;-84
2021/12/09 07:51:13;;;;;;;16.23;7.95;;;;;;;0.88;100.00;99867.25;5027062;28;20116;-84
2021/12/09 07:53:39;;;;;;;21.08;9.82;;;;;;;0.90;100.00;99867.16;5006907;28;20053;-85
2021/12/09 07:56:06;;;;;;;18.33;10.05;;;;;;;0.90;100.00;99877.72;5028873;28;20037;-84
2021/12/09 07:58:35;;;;;;;16.30;9.18;;;;;;;0.87;100.00;99870.03;5045556;28;20489;-83
2021/12/09 08:01:01;;;;;;;14.15;8.68;;;;;;;0.87;100.00;99864.75;5029135;28;20051;-84
2021/12/09 08:03:26;;;;;;;17.20;8.65;;;;;;;0.87;100.00;99868.22;5038462;28;20090;-84
2021/12/09 08:05:59;;;;;;;18.83;8.35;;;;;;;0.86;100.00;99870.97;5042411;28;20164;-83
2021/12/09 08:08:25;;;;;;;18.17;10.40;;;;;;;0.86;100.00;99884.19;5028970;28;20036;-83
2021/12/09 08:10:52;;;;;;;18.27;9.43;;;;;;;0.83;100.00;99881.78;5027847;28;20063;-83
2021/12/09 08:13:18;;;;;;;17.42;9.50;;;;;;;0.79;100.00;99893.59;5016679;28;20038;-82
2021/12/09 08:15:49;;;;;;;14.43;9.63;;;;;;;0.83;100.00;99890.56;5019115;28;20033;-86
2021/12/09 08:20:50;;;;;;;18.00;9.68;;;;;;;0.81;100.00;99887.22;5014717;28;20048;-84
2021/12/09 08:23:17;;;;;;;19.92;10.48;;;;;;;0.83;100.00;99884.44;5033834;28;20037;-83
2021/12/09 08:25:43;;;;;;;17.08;8.75;;;;;;;0.81;100.00;99881.94;5006372;28;20050;-84
2021/12/09 08:28:09;;;;;;;14.43;8.27;;;;;;;0.82;100.00;99882.78;5019830;28;20053;-84
2021/12/09 08:30:38;;;;;;;18.75;8.43;;;;;;;0.85;100.00;99883.34;5040587;28;20049;-83
2021/12/09 08:33:06;;;;;;;18.88;9.20;;;;;;;0.90;100.00;99885.63;4992202;28;20117;-82
2021/12/09 08:35:39;;;;;;;18.48;10.00;;;;;;;0.90;100.00;99889.13;5007616;28;20076;-82
2021/12/09 08:38:06;;;;;;;21.70;9.50;;;;;;;0.94;100.00;99889.69;5027408;28;20045;-84
2021/12/09 08:40:34;;;;;;;18.95;9.63;;;;;;;0.92;100.00;99894.25;5007747;28;20049;-83
2021/12/09 08:42:59;;;;;;;17.63;9.43;;;;;;;0.95;100.00;99887.88;5001427;28;20033;-82
2021/12/09 08:45:26;;;;;;;25.42;10.02;;;;;;;1.00;100.00;99897.13;5008653;28;20029;-84
2021/12/09 08:47:52;;;;;;;19.40;9.93;;;;;;;1.02;100.00;99889.91;5025956;28;20037;-85
2021/12/09 08:50:22;;;;;;;17.83;10.55;;;;;;;1.04;100.00;99895.09;5005777;28;20069;-83
2021/12/09 08:52:51;;;;;;;16.13;8.23;;;;;;;1.06;100.00;99895.78;5022868;28;20149;-82
2021/12/09 08:55:18;;;;;;;17.95;9.88;;;;;;;1.08;100.00;99904.44;5021149;28;20410;-83
2021/12/09 08:57:46;;;;;;;15.40;8.73;;;;;;;1.12;100.00;99906.72;5005034;28;20034;-83
2021/12/09 09:00:14;;;;;;;17.70;9.85;;;;;;;1.13;100.00;99908.38;5006218;28;20136;-84
2021/12/09 09:02:43;;;;;;;15.93;7.40;;;;;;;1.17;100.00;99910.75;5026304;28;20651;-83
2021/12/09 09:05:13;;;;;;;15.15;8.52;;;;;;;1.18;100.00;99912.44;5036573;28;20594;-83
2021/12/09 09:07:43;;;;;;;13.07;7.55;;;;;;;1.19;100.00;99922.88;5042747;28;20047;-83
2021/12/09 09:10:11;;;;;;;21.38;10.43;;;;;;;1.23;100.00;99918.19;5001531;28;20046;-82
2021/12/09 09:12:43;;;;;;;17.20;9.07;;;;;;;1.28;100.00;99908.09;5007465;28;20553;-82
2021/12/09 09:15:14;;;;;;;20.38;9.07;;;;;;;1.32;100.00;99914.78;5004696;28;20046;-84
2021/12/09 09:17:40;;;;;;;18.42;10.70;;;;;;;1.38;100.00;99906.34;5018119;28;20056;-84
2021/12/09 09:20:11;;;;;;;15.40;9.50;;;;;;;1.41;100.00;99906.13;5032255;28;20048;-84
2021/12/09 09:22:39;;;;;;;16.92;9.07;;;;;;;1.47;100.00;99900.31;5027095;28;20053;-82
2021/12/09 09:25:08;;;;;;;15.57;7.80;;;;;;;1.52;100.00;99898.09;5020975;28;20056;-85
2021/12/09 09:27:34;;;;;;;19.65;8.77;;;;;;;1.54;100.00;99898.00;5024916;28;20583;-86
2021/12/09 09:30:05;;;;;;;13.60;6.63;;;;;;;1.56;100.00;99896.91;5009625;28;20053;-83
2021/12/09 09:32:31;;;;;;;14.23;7.90;;;;;;;1.62;100.00;99906.13;5006789;28;20045;-82
2021/12/09 09:34:56;;;;;;;13.05;7.13;;;;;;;1.69;100.00;99906.44;5008592;28;20034;-84
2021/12/09 09:37:22;;;;;;;13.40;7.60;;;;;;;1.73;100.00;99897.28;5004266;28;20045;-84
2021/12/09 09:39:47;;;;;;;16.48;7.63;;;;;;;1.78;100.00;99908.31;4987605;28;20052;-82
2021/12/09 09:44:54;;;;;;;14.60;6.65;;;;;;;1.90;100.00;99906.44;5008022;28;20041;-83
2021/12/09 09:47:24;;;;;;;12.38;7.35;;;;;;;1.95;100.00;99905.06;5024560;28;20050;-84
2021/12/09 09:49:50;;;;;;;14.90;7.35;;;;;;;2.01;100.00;99912.50;5008324;28;20083;-82
2021/12/09 09:52:16;;;;;;;16.20;6.43;;;;;;;2.06;100.00;99913.91;5003304;28;20502;-81
2021/12/09 09:54:41;;;;;;;13.40;6.45;;;;;;;2.14;100.00;99906.16;4985937;28;20079;-83
2021/12/09 09:57:10;;;;;;;10.65;6.72;;;;;;;2.18;100.00;99912.84;4988515;28;20040;-83
2021/12/09 09:59:40;;;;;;;16.80;7.18;;;;;;;2.19;100.00;99922.50;5027105;28;20056;-83
2021/12/09 10:02:13;;;;;;;11.73;7.10;;;;;;;2.20;100.00;99925.00;5023963;28;20516;-83
2021/12/09 10:04:49;;;;;;;11.50;6.68;;;;;;;2.25;100.00;99929.91;5026335;28;20068;-83
2021/12/09 10:07:18;;;;;;;16.05;7.28;;;;;;;2.27;100.00;99925.28;5034405;28;20037;-82
2021/12/09 10:09:45;;;;;;;14.93;7.05;;;;;;;2.31;100.00;99920.59;5026395;28;20041;-82
2021/12/09 10:12:15;;;;;;;14.50;6.95;;;;;;;2.34;100.00;99930.91;5002814;28;20068;-83
2021/12/09 10:14:54;;;;;;;14.60;6.57;;;;;;;2.34;100.00;99926.47;5010219;28;20083;-82
2021/12/09 10:17:22;;;;;;;15.27;6.30;;;;;;;2.35;100.00;99914.88;5009475;28;20091;-82
2021/12/09 10:20:00;;;;;;;12.05;6.97;;;;;;;2.38;100.00;99927.03;4991569;28;20045;-84
2021/12/09 10:22:32;;;;;;;15.15;6.85;;;;;;;2.41;100.00;99914.34;5016137;28;20088;-84
2021/12/09 10:25:00;;;;;;;9.27;5.60;;;;;;;2.44;100.00;99915.91;4992218;28;20117;-84
2021/12/09 10:27:33;;;;;;;14.25;7.03;;;;;;;2.47;100.00;99908.53;5020587;28;20100;-83
2021/12/09 10:30:10;;;;;;;10.93;6.65;;;;;;;2.51;100.00;99910.91;5019741;28;20042;-83
2021/12/09 10:32:35;;;;;;;14.65;7.63;;;;;;;2.50;100.00;99904.75;5021064;28;20059;-84
2021/12/09 10:35:08;;;;;;;11.13;6.00;;;;;;;2.51;100.00;99905.63;5003333;28;20494;-83
2021/12/09 10:37:39;;;;;;;15.23;6.80;;;;;;;2.52;100.00;99902.00;5005406;28;20727;-83
2021/12/09 10:40:14;;;;;;;9.35;5.80;;;;;;;2.52;100.00;99900.19;5008276;28;20494;-83
2021/12/09 10:42:50;;;;;;;15.43;6.72;;;;;;;2.53;100.00;99898.38;5020968;28;20351;-83
2021/12/09 10:45:23;;;;;;;12.80;6.35;;;;;;;2.54;100.00;99887.66;5038940;28;20108;-83
2021/12/09 10:48:11;;;;;;;15.93;6.30;;;;;;;2.58;100.00;99901.44;5021044;28;20624;-83
2021/12/09 10:50:58;;;;;;;10.10;6.20;;;;;;;2.63;100.00;99900.06;5025595;28;20568;-83
2021/12/09 10:55:59;;;;;;;13.13;6.97;;;;;;;2.69;100.00;99888.09;5028736;28;20087;-84
2021/12/09 10:58:27;;;;;;;15.63;7.10;;;;;;;2.72;100.00;99893.97;5010747;28;20490;-83
2021/12/09 11:01:00;;;;;;;16.27;6.82;;;;;;;2.72;100.00;99893.97;5004188;28;20045;-84
2021/12/09 11:03:50;;;;;;;14.38;6.88;;;;;;;2.77;100.00;99895.38;5019447;28;20490;-85
2021/12/09 11:06:20;;;;;;;16.75;7.35;;;;;;;2.76;100.00;99891.88;5023124;28;20045;-84
2021/12/09 11:08:54;;;;;;;14.50;7.47;;;;;;;2.78;100.00;99886.44;5011411;28;20506;-84
2021/12/09 11:11:37;;;;;;;16.35;6.93;;;;;;;2.80;100.00;99874.75;5009404;28;20068;-83
2021/12/09 11:14:17;;;;;;;14.75;7.35;;;;;;;2.83;100.00;99882.41;5041989;28;20061;-84
2021/12/09 11:17:02;;;;;;;15.00;6.45;;;;;;;2.82;100.00;99862.19;5015005;28;20401;-85
2021/12/09 11:19:38;;;;;;;19.25;7.82;;;;;;;2.83;100.00;99873.63;5027701;28;20045;-85
2021/12/09 11:22:08;;;;;;;14.40;7.53;;;;;;;2.84;100.00;99870.84;5015781;28;20059;-85
2021/12/09 11:24:41;;;;;;;13.65;6.97;;;;;;;2.87;100.00;99872.38;5046352;28;20048;-84
2021/12/09 11:27:15;;;;;;;10.63;7.03;;;;;;;2.89;100.00;99865.13;5015879;28;20048;-84
2021/12/09 11:29:48;;;;;;;15.13;7.80;;;;;;;2.90;100.00;99874.75;5029620;28;20045;-84
2021/12/09 11:35:15;;;;;;;14.30;7.30;;;;;;;2.93;100.00;99867.38;5022325;28;20042;-85
2021/12/09 11:37:54;;;;;;;14.27;6.95;;;;;;;2.93;100.00;99864.72;5029406;28;20041;-85
2021/12/09 11:43:32;;;;;;;13.10;7.65;;;;;;;2.95;100.00;99861.94;4966500;28;20063;-85
2021/12/09 11:45:59;;;;;;;17.42;8.80;;;;;;;2.97;100.00;99856.50;4960570;28;20106;-85
2021/12/09 11:48:25;;;;;;;21.08;8.63;;;;;;;3.00;100.00;99858.88;5005144;28;20058;-86